Terminal Aerodrome Forecast
Issued by NWS

Home | Current Version | Previous Version | Text Only | Print | Product List | Glossary On
Versions: 1 2 3 4 5 6 7 8 9 10 11 12 13 14 15 16 17 18 19 20
000
FTUS43 KDVN 171021 AAB
TAFCID
TAF AMD
KCID 171021Z 1710/1806 14016G21KT 6SM BR FEW010 OVC070
     FM171300 15015G23KT 6SM -DZ BR OVC020
     FM172000 17010KT 2SM -RA OVC007
     FM180200 18006KT 1SM -RA BR OVC003=

USA.gov is the U.S. government's official web portal to all federal, state and local government web resources and services.